sensor_id;sensor_type;location;lat;lon;timestamp;P1;durP1;ratioP1;P2;durP2;ratioP2
36829;SDS011;22767;47.328;9.640;2022-11-20T00:01:09;1.08;;;0.77;;
36829;SDS011;22767;47.328;9.640;2022-11-20T00:03:35;3.15;;;0.90;;
36829;SDS011;22767;47.328;9.640;2022-11-20T00:06:06;1.88;;;1.08;;
36829;SDS011;22767;47.328;9.640;2022-11-20T00:08:32;3.65;;;1.20;;
36829;SDS011;22767;47.328;9.640;2022-11-20T00:11:05;2.75;;;1.20;;
36829;SDS011;22767;47.328;9.640;2022-11-20T00:13:32;1.90;;;0.95;;
36829;SDS011;22767;47.328;9.640;2022-11-20T00:15:58;6.45;;;1.52;;
36829;SDS011;22767;47.328;9.640;2022-11-20T00:18:27;2.85;;;1.10;;
36829;SDS011;22767;47.328;9.640;2022-11-20T00:20:59;2.25;;;1.10;;
36829;SDS011;22767;47.328;9.640;2022-11-20T00:23:25;2.50;;;1.13;;
36829;SDS011;22767;47.328;9.640;2022-11-20T00:25:51;3.08;;;1.00;;
36829;SDS011;22767;47.328;9.640;2022-11-20T00:28:17;2.38;;;1.17;;
36829;SDS011;22767;47.328;9.640;2022-11-20T00:30:44;3.97;;;1.00;;
36829;SDS011;22767;47.328;9.640;2022-11-20T00:33:10;1.92;;;1.15;;
36829;SDS011;22767;47.328;9.640;2022-11-20T00:35:36;2.10;;;0.90;;
36829;SDS011;22767;47.328;9.640;2022-11-20T00:38:02;2.67;;;0.90;;
36829;SDS011;22767;47.328;9.640;2022-11-20T00:40:28;4.25;;;2.10;;
36829;SDS011;22767;47.328;9.640;2022-11-20T00:42:54;3.38;;;2.15;;
36829;SDS011;22767;47.328;9.640;2022-11-20T00:45:21;4.75;;;1.90;;
36829;SDS011;22767;47.328;9.640;2022-11-20T00:47:47;4.05;;;2.13;;
36829;SDS011;22767;47.328;9.640;2022-11-20T00:50:13;3.70;;;2.65;;
36829;SDS011;22767;47.328;9.640;2022-11-20T00:52:39;8.25;;;4.05;;
36829;SDS011;22767;47.328;9.640;2022-11-20T00:55:05;5.55;;;3.13;;
36829;SDS011;22767;47.328;9.640;2022-11-20T00:57:31;5.40;;;2.90;;
36829;SDS011;22767;47.328;9.640;2022-11-20T00:59:57;4.22;;;2.58;;
36829;SDS011;22767;47.328;9.640;2022-11-20T01:02:23;5.35;;;3.35;;
36829;SDS011;22767;47.328;9.640;2022-11-20T01:04:50;3.20;;;2.80;;
36829;SDS011;22767;47.328;9.640;2022-11-20T01:07:16;4.20;;;2.60;;
36829;SDS011;22767;47.328;9.640;2022-11-20T01:09:42;4.90;;;2.20;;
36829;SDS011;22767;47.328;9.640;2022-11-20T01:12:08;5.18;;;2.67;;
36829;SDS011;22767;47.328;9.640;2022-11-20T01:14:34;5.55;;;2.25;;
36829;SDS011;22767;47.328;9.640;2022-11-20T01:17:01;3.75;;;2.33;;
36829;SDS011;22767;47.328;9.640;2022-11-20T01:19:27;3.88;;;2.85;;
36829;SDS011;22767;47.328;9.640;2022-11-20T01:21:53;6.82;;;3.08;;
36829;SDS011;22767;47.328;9.640;2022-11-20T01:24:21;4.13;;;2.30;;
36829;SDS011;22767;47.328;9.640;2022-11-20T01:26:48;4.10;;;2.72;;
36829;SDS011;22767;47.328;9.640;2022-11-20T01:29:16;6.40;;;2.90;;
36829;SDS011;22767;47.328;9.640;2022-11-20T01:31:43;4.85;;;2.95;;
36829;SDS011;22767;47.328;9.640;2022-11-20T01:34:10;4.78;;;2.90;;
36829;SDS011;22767;47.328;9.640;2022-11-20T01:36:37;7.90;;;3.10;;
36829;SDS011;22767;47.328;9.640;2022-11-20T01:39:05;5.32;;;2.15;;
36829;SDS011;22767;47.328;9.640;2022-11-20T01:41:32;3.80;;;2.28;;
36829;SDS011;22767;47.328;9.640;2022-11-20T01:44:18;4.60;;;2.08;;
36829;SDS011;22767;47.328;9.640;2022-11-20T01:49:22;3.05;;;2.50;;
36829;SDS011;22767;47.328;9.640;2022-11-20T01:51:50;3.60;;;2.33;;
36829;SDS011;22767;47.328;9.640;2022-11-20T01:54:19;5.60;;;3.35;;
36829;SDS011;22767;47.328;9.640;2022-11-20T01:56:48;5.47;;;3.35;;
36829;SDS011;22767;47.328;9.640;2022-11-20T01:59:17;3.42;;;2.83;;
36829;SDS011;22767;47.328;9.640;2022-11-20T02:01:44;3.53;;;2.58;;
36829;SDS011;22767;47.328;9.640;2022-11-20T02:04:10;4.97;;;3.08;;
36829;SDS011;22767;47.328;9.640;2022-11-20T02:09:05;5.68;;;3.70;;
36829;SDS011;22767;47.328;9.640;2022-11-20T02:11:31;7.20;;;3.50;;
36829;SDS011;22767;47.328;9.640;2022-11-20T02:13:58;5.95;;;2.70;;
36829;SDS011;22767;47.328;9.640;2022-11-20T02:16:29;4.43;;;2.70;;
36829;SDS011;22767;47.328;9.640;2022-11-20T02:18:56;6.47;;;2.83;;
36829;SDS011;22767;47.328;9.640;2022-11-20T02:21:24;4.63;;;3.47;;
36829;SDS011;22767;47.328;9.640;2022-11-20T02:23:56;4.65;;;2.88;;
36829;SDS011;22767;47.328;9.640;2022-11-20T02:26:23;4.75;;;3.42;;
36829;SDS011;22767;47.328;9.640;2022-11-20T02:28:49;5.82;;;3.10;;
36829;SDS011;22767;47.328;9.640;2022-11-20T02:31:16;6.07;;;3.30;;
36829;SDS011;22767;47.328;9.640;2022-11-20T02:33:42;4.50;;;3.17;;
36829;SDS011;22767;47.328;9.640;2022-11-20T02:36:09;4.85;;;3.03;;
36829;SDS011;22767;47.328;9.640;2022-11-20T02:38:37;5.75;;;3.45;;
36829;SDS011;22767;47.328;9.640;2022-11-20T02:41:03;3.88;;;2.67;;
36829;SDS011;22767;47.328;9.640;2022-11-20T02:43:29;3.72;;;2.30;;
36829;SDS011;22767;47.328;9.640;2022-11-20T02:45:55;3.42;;;2.42;;
36829;SDS011;22767;47.328;9.640;2022-11-20T02:48:21;2.55;;;2.20;;
36829;SDS011;22767;47.328;9.640;2022-11-20T02:50:47;2.88;;;1.73;;
36829;SDS011;22767;47.328;9.640;2022-11-20T02:53:13;2.70;;;1.27;;
36829;SDS011;22767;47.328;9.640;2022-11-20T02:55:39;1.65;;;1.17;;
36829;SDS011;22767;47.328;9.640;2022-11-20T02:58:05;2.88;;;1.33;;
36829;SDS011;22767;47.328;9.640;2022-11-20T03:00:32;4.57;;;1.60;;
36829;SDS011;22767;47.328;9.640;2022-11-20T03:02:58;5.07;;;1.55;;
36829;SDS011;22767;47.328;9.640;2022-11-20T03:05:24;3.33;;;1.70;;
36829;SDS011;22767;47.328;9.640;2022-11-20T03:07:50;3.22;;;1.42;;
36829;SDS011;22767;47.328;9.640;2022-11-20T03:10:17;5.35;;;1.52;;
36829;SDS011;22767;47.328;9.640;2022-11-20T03:12:43;1.63;;;1.30;;
36829;SDS011;22767;47.328;9.640;2022-11-20T03:15:09;1.40;;;1.20;;
36829;SDS011;22767;47.328;9.640;2022-11-20T03:17:35;1.20;;;1.02;;
36829;SDS011;22767;47.328;9.640;2022-11-20T03:20:01;1.25;;;1.15;;
36829;SDS011;22767;47.328;9.640;2022-11-20T03:22:31;2.03;;;0.80;;
36829;SDS011;22767;47.328;9.640;2022-11-20T03:24:57;2.35;;;1.17;;
36829;SDS011;22767;47.328;9.640;2022-11-20T03:27:23;1.50;;;0.85;;
36829;SDS011;22767;47.328;9.640;2022-11-20T03:29:49;1.20;;;1.10;;
36829;SDS011;22767;47.328;9.640;2022-11-20T03:32:15;2.83;;;1.45;;
36829;SDS011;22767;47.328;9.640;2022-11-20T03:34:41;3.22;;;1.70;;
36829;SDS011;22767;47.328;9.640;2022-11-20T03:37:07;2.22;;;1.67;;
36829;SDS011;22767;47.328;9.640;2022-11-20T03:39:33;2.55;;;1.52;;
36829;SDS011;22767;47.328;9.640;2022-11-20T03:41:59;1.40;;;1.10;;
36829;SDS011;22767;47.328;9.640;2022-11-20T03:44:25;1.80;;;1.17;;
36829;SDS011;22767;47.328;9.640;2022-11-20T03:46:51;2.00;;;1.08;;
36829;SDS011;22767;47.328;9.640;2022-11-20T03:49:17;2.35;;;1.33;;
36829;SDS011;22767;47.328;9.640;2022-11-20T03:51:43;2.17;;;1.10;;
36829;SDS011;22767;47.328;9.640;2022-11-20T03:54:10;1.90;;;0.95;;
36829;SDS011;22767;47.328;9.640;2022-11-20T03:56:37;0.75;;;0.75;;
36829;SDS011;22767;47.328;9.640;2022-11-20T03:59:04;0.75;;;0.60;;
36829;SDS011;22767;47.328;9.640;2022-11-20T04:01:31;0.75;;;0.63;;
36829;SDS011;22767;47.328;9.640;2022-11-20T04:03:58;1.40;;;0.77;;
36829;SDS011;22767;47.328;9.640;2022-11-20T04:06:34;0.65;;;0.60;;
36829;SDS011;22767;47.328;9.640;2022-11-20T04:09:00;1.58;;;0.40;;
36829;SDS011;22767;47.328;9.640;2022-11-20T04:11:27;1.10;;;0.60;;
36829;SDS011;22767;47.328;9.640;2022-11-20T04:13:55;0.88;;;0.40;;
36829;SDS011;22767;47.328;9.640;2022-11-20T04:16:22;0.88;;;0.77;;
36829;SDS011;22767;47.328;9.640;2022-11-20T04:18:54;1.73;;;0.68;;
36829;SDS011;22767;47.328;9.640;2022-11-20T04:21:21;1.23;;;0.57;;
36829;SDS011;22767;47.328;9.640;2022-11-20T04:23:48;0.40;;;0.40;;
36829;SDS011;22767;47.328;9.640;2022-11-20T04:26:14;2.58;;;0.77;;
36829;SDS011;22767;47.328;9.640;2022-11-20T04:28:40;0.68;;;0.60;;
36829;SDS011;22767;47.328;9.640;2022-11-20T04:31:07;0.75;;;0.60;;
36829;SDS011;22767;47.328;9.640;2022-11-20T04:33:34;0.43;;;0.43;;
36829;SDS011;22767;47.328;9.640;2022-11-20T04:36:04;1.65;;;0.57;;
36829;SDS011;22767;47.328;9.640;2022-11-20T04:38:31;1.17;;;0.60;;
36829;SDS011;22767;47.328;9.640;2022-11-20T04:41:00;1.10;;;0.80;;
36829;SDS011;22767;47.328;9.640;2022-11-20T04:43:27;1.52;;;0.50;;
36829;SDS011;22767;47.328;9.640;2022-11-20T04:45:54;0.73;;;0.60;;
36829;SDS011;22767;47.328;9.640;2022-11-20T04:48:20;2.15;;;0.68;;
36829;SDS011;22767;47.328;9.640;2022-11-20T04:50:46;0.82;;;0.60;;
36829;SDS011;22767;47.328;9.640;2022-11-20T04:53:13;1.13;;;0.60;;
36829;SDS011;22767;47.328;9.640;2022-11-20T04:55:39;1.00;;;0.75;;
36829;SDS011;22767;47.328;9.640;2022-11-20T04:58:05;1.08;;;0.50;;
36829;SDS011;22767;47.328;9.640;2022-11-20T05:00:31;0.98;;;0.52;;
36829;SDS011;22767;47.328;9.640;2022-11-20T05:02:57;5.68;;;1.60;;
36829;SDS011;22767;47.328;9.640;2022-11-20T05:05:24;3.13;;;0.88;;
36829;SDS011;22767;47.328;9.640;2022-11-20T05:07:50;1.85;;;0.77;;
36829;SDS011;22767;47.328;9.640;2022-11-20T05:10:16;3.50;;;0.75;;
36829;SDS011;22767;47.328;9.640;2022-11-20T05:12:42;1.08;;;0.63;;
36829;SDS011;22767;47.328;9.640;2022-11-20T05:15:08;1.77;;;0.80;;
36829;SDS011;22767;47.328;9.640;2022-11-20T05:17:34;2.15;;;0.90;;
36829;SDS011;22767;47.328;9.640;2022-11-20T05:20:00;1.13;;;0.60;;
36829;SDS011;22767;47.328;9.640;2022-11-20T05:22:26;2.75;;;1.08;;
36829;SDS011;22767;47.328;9.640;2022-11-20T05:24:53;0.90;;;0.50;;
36829;SDS011;22767;47.328;9.640;2022-11-20T05:27:19;0.90;;;0.60;;
36829;SDS011;22767;47.328;9.640;2022-11-20T05:29:45;1.95;;;0.57;;
36829;SDS011;22767;47.328;9.640;2022-11-20T05:32:11;1.73;;;0.70;;
36829;SDS011;22767;47.328;9.640;2022-11-20T05:34:37;1.52;;;0.90;;
36829;SDS011;22767;47.328;9.640;2022-11-20T05:37:03;1.27;;;0.75;;
36829;SDS011;22767;47.328;9.640;2022-11-20T05:39:29;2.35;;;0.70;;
36829;SDS011;22767;47.328;9.640;2022-11-20T05:41:55;0.57;;;0.50;;
36829;SDS011;22767;47.328;9.640;2022-11-20T05:44:40;0.85;;;0.52;;
36829;SDS011;22767;47.328;9.640;2022-11-20T05:47:06;1.15;;;0.80;;
36829;SDS011;22767;47.328;9.640;2022-11-20T05:49:32;0.55;;;0.52;;
36829;SDS011;22767;47.328;9.640;2022-11-20T05:51:58;3.10;;;0.70;;
36829;SDS011;22767;47.328;9.640;2022-11-20T05:54:25;1.45;;;1.00;;
36829;SDS011;22767;47.328;9.640;2022-11-20T05:56:51;1.52;;;0.82;;
36829;SDS011;22767;47.328;9.640;2022-11-20T05:59:17;2.60;;;0.80;;
36829;SDS011;22767;47.328;9.640;2022-11-20T06:01:44;0.85;;;0.70;;
36829;SDS011;22767;47.328;9.640;2022-11-20T06:04:10;1.50;;;1.00;;
36829;SDS011;22767;47.328;9.640;2022-11-20T06:06:36;0.80;;;0.77;;
36829;SDS011;22767;47.328;9.640;2022-11-20T06:09:02;1.98;;;0.65;;
36829;SDS011;22767;47.328;9.640;2022-11-20T06:11:28;0.73;;;0.73;;
36829;SDS011;22767;47.328;9.640;2022-11-20T06:13:54;1.30;;;0.95;;
36829;SDS011;22767;47.328;9.640;2022-11-20T06:16:20;4.93;;;1.35;;
36829;SDS011;22767;47.328;9.640;2022-11-20T06:18:46;1.40;;;1.30;;
36829;SDS011;22767;47.328;9.640;2022-11-20T06:21:14;4.57;;;1.27;;
36829;SDS011;22767;47.328;9.640;2022-11-20T06:23:40;3.05;;;1.08;;
36829;SDS011;22767;47.328;9.640;2022-11-20T06:26:07;1.67;;;1.33;;
36829;SDS011;22767;47.328;9.640;2022-11-20T06:28:33;4.13;;;1.13;;
36829;SDS011;22767;47.328;9.640;2022-11-20T06:31:00;2.58;;;1.08;;
36829;SDS011;22767;47.328;9.640;2022-11-20T06:33:26;2.65;;;1.70;;
36829;SDS011;22767;47.328;9.640;2022-11-20T06:35:55;1.85;;;1.23;;
36829;SDS011;22767;47.328;9.640;2022-11-20T06:38:21;3.60;;;0.90;;
36829;SDS011;22767;47.328;9.640;2022-11-20T06:40:47;1.63;;;1.10;;
36829;SDS011;22767;47.328;9.640;2022-11-20T06:43:14;1.40;;;0.90;;
36829;SDS011;22767;47.328;9.640;2022-11-20T06:45:40;4.18;;;0.95;;
36829;SDS011;22767;47.328;9.640;2022-11-20T06:48:06;2.05;;;0.90;;
36829;SDS011;22767;47.328;9.640;2022-11-20T06:50:32;1.20;;;1.05;;
36829;SDS011;22767;47.328;9.640;2022-11-20T06:53:02;2.00;;;1.52;;
36829;SDS011;22767;47.328;9.640;2022-11-20T06:55:28;2.58;;;2.30;;
36829;SDS011;22767;47.328;9.640;2022-11-20T06:57:54;2.30;;;2.00;;
36829;SDS011;22767;47.328;9.640;2022-11-20T07:00:21;1.92;;;1.45;;
36829;SDS011;22767;47.328;9.640;2022-11-20T07:02:47;2.33;;;1.90;;
36829;SDS011;22767;47.328;9.640;2022-11-20T07:05:13;3.28;;;2.47;;
36829;SDS011;22767;47.328;9.640;2022-11-20T07:07:39;5.00;;;2.97;;
36829;SDS011;22767;47.328;9.640;2022-11-20T07:10:05;3.20;;;2.50;;
36829;SDS011;22767;47.328;9.640;2022-11-20T07:12:31;3.08;;;2.58;;
36829;SDS011;22767;47.328;9.640;2022-11-20T07:14:57;4.38;;;2.95;;
36829;SDS011;22767;47.328;9.640;2022-11-20T07:17:23;3.90;;;2.78;;
36829;SDS011;22767;47.328;9.640;2022-11-20T07:19:50;3.45;;;2.53;;
36829;SDS011;22767;47.328;9.640;2022-11-20T07:22:16;3.97;;;2.13;;
36829;SDS011;22767;47.328;9.640;2022-11-20T07:24:42;2.45;;;2.20;;
36829;SDS011;22767;47.328;9.640;2022-11-20T07:27:08;2.50;;;2.25;;
36829;SDS011;22767;47.328;9.640;2022-11-20T07:29:34;4.28;;;2.20;;
36829;SDS011;22767;47.328;9.640;2022-11-20T07:32:00;4.88;;;3.25;;
36829;SDS011;22767;47.328;9.640;2022-11-20T07:34:26;5.10;;;3.20;;
36829;SDS011;22767;47.328;9.640;2022-11-20T07:36:52;4.28;;;3.10;;
36829;SDS011;22767;47.328;9.640;2022-11-20T07:39:18;4.30;;;3.30;;
36829;SDS011;22767;47.328;9.640;2022-11-20T07:41:45;3.42;;;1.65;;
36829;SDS011;22767;47.328;9.640;2022-11-20T07:44:11;1.77;;;1.50;;
36829;SDS011;22767;47.328;9.640;2022-11-20T07:46:37;3.08;;;1.80;;
36829;SDS011;22767;47.328;9.640;2022-11-20T07:49:03;2.30;;;1.58;;
36829;SDS011;22767;47.328;9.640;2022-11-20T07:51:29;3.30;;;2.67;;
36829;SDS011;22767;47.328;9.640;2022-11-20T07:53:55;3.20;;;1.95;;
36829;SDS011;22767;47.328;9.640;2022-11-20T07:56:21;2.25;;;1.80;;
36829;SDS011;22767;47.328;9.640;2022-11-20T07:58:47;2.67;;;2.08;;
36829;SDS011;22767;47.328;9.640;2022-11-20T08:01:13;2.45;;;1.80;;
36829;SDS011;22767;47.328;9.640;2022-11-20T08:03:39;4.57;;;2.95;;
36829;SDS011;22767;47.328;9.640;2022-11-20T08:06:06;4.63;;;3.47;;
36829;SDS011;22767;47.328;9.640;2022-11-20T08:08:32;5.43;;;3.92;;
36829;SDS011;22767;47.328;9.640;2022-11-20T08:10:59;4.47;;;3.25;;
36829;SDS011;22767;47.328;9.640;2022-11-20T08:13:45;4.00;;;2.92;;
36829;SDS011;22767;47.328;9.640;2022-11-20T08:16:30;2.97;;;2.60;;
36829;SDS011;22767;47.328;9.640;2022-11-20T08:18:56;3.65;;;2.60;;
36829;SDS011;22767;47.328;9.640;2022-11-20T08:21:22;4.10;;;2.90;;
36829;SDS011;22767;47.328;9.640;2022-11-20T08:23:49;4.57;;;3.00;;
36829;SDS011;22767;47.328;9.640;2022-11-20T08:26:15;4.85;;;3.40;;
36829;SDS011;22767;47.328;9.640;2022-11-20T08:28:41;5.85;;;3.08;;
36829;SDS011;22767;47.328;9.640;2022-11-20T08:31:07;4.45;;;3.00;;
36829;SDS011;22767;47.328;9.640;2022-11-20T08:33:34;4.00;;;2.72;;
36829;SDS011;22767;47.328;9.640;2022-11-20T08:36:01;3.85;;;3.00;;
36829;SDS011;22767;47.328;9.640;2022-11-20T08:38:27;7.00;;;3.47;;
36829;SDS011;22767;47.328;9.640;2022-11-20T08:40:57;5.40;;;2.92;;
36829;SDS011;22767;47.328;9.640;2022-11-20T08:43:42;4.75;;;2.67;;
36829;SDS011;22767;47.328;9.640;2022-11-20T08:46:08;3.15;;;2.53;;
36829;SDS011;22767;47.328;9.640;2022-11-20T08:48:34;5.05;;;3.28;;
36829;SDS011;22767;47.328;9.640;2022-11-20T08:51:01;6.15;;;3.42;;
36829;SDS011;22767;47.328;9.640;2022-11-20T08:53:27;4.78;;;2.83;;
36829;SDS011;22767;47.328;9.640;2022-11-20T08:55:53;4.38;;;2.47;;
36829;SDS011;22767;47.328;9.640;2022-11-20T08:58:19;3.55;;;2.75;;
36829;SDS011;22767;47.328;9.640;2022-11-20T09:00:45;3.65;;;2.45;;
36829;SDS011;22767;47.328;9.640;2022-11-20T09:03:11;3.05;;;2.10;;
36829;SDS011;22767;47.328;9.640;2022-11-20T09:05:38;3.13;;;2.05;;
36829;SDS011;22767;47.328;9.640;2022-11-20T09:08:04;2.90;;;2.60;;
36829;SDS011;22767;47.328;9.640;2022-11-20T09:10:30;4.97;;;2.63;;
36829;SDS011;22767;47.328;9.640;2022-11-20T09:12:57;4.72;;;2.60;;
36829;SDS011;22767;47.328;9.640;2022-11-20T09:15:24;3.10;;;2.03;;
36829;SDS011;22767;47.328;9.640;2022-11-20T09:17:51;3.70;;;2.35;;
36829;SDS011;22767;47.328;9.640;2022-11-20T09:20:17;4.70;;;3.00;;
36829;SDS011;22767;47.328;9.640;2022-11-20T09:22:43;3.38;;;2.80;;
36829;SDS011;22767;47.328;9.640;2022-11-20T09:25:10;4.85;;;2.78;;
36829;SDS011;22767;47.328;9.640;2022-11-20T09:27:36;4.65;;;3.25;;
36829;SDS011;22767;47.328;9.640;2022-11-20T09:30:02;4.88;;;3.10;;
36829;SDS011;22767;47.328;9.640;2022-11-20T09:32:28;4.68;;;3.05;;
36829;SDS011;22767;47.328;9.640;2022-11-20T09:34:54;7.32;;;3.70;;
36829;SDS011;22767;47.328;9.640;2022-11-20T09:37:20;4.13;;;2.67;;
36829;SDS011;22767;47.328;9.640;2022-11-20T09:39:47;5.10;;;3.15;;
36829;SDS011;22767;47.328;9.640;2022-11-20T09:44:50;5.03;;;2.58;;
36829;SDS011;22767;47.328;9.640;2022-11-20T09:52:46;6.50;;;3.15;;
36829;SDS011;22767;47.328;9.640;2022-11-20T09:55:15;2.53;;;2.03;;
36829;SDS011;22767;47.328;9.640;2022-11-20T09:57:42;4.20;;;3.15;;
36829;SDS011;22767;47.328;9.640;2022-11-20T10:00:11;3.75;;;2.60;;
36829;SDS011;22767;47.328;9.640;2022-11-20T10:02:43;4.32;;;2.60;;
36829;SDS011;22767;47.328;9.640;2022-11-20T10:05:12;4.05;;;2.55;;
36829;SDS011;22767;47.328;9.640;2022-11-20T10:07:43;2.75;;;2.10;;
36829;SDS011;22767;47.328;9.640;2022-11-20T10:10:17;2.88;;;2.10;;
36829;SDS011;22767;47.328;9.640;2022-11-20T10:12:57;4.15;;;2.30;;
36829;SDS011;22767;47.328;9.640;2022-11-20T10:20:48;2.60;;;1.80;;
36829;SDS011;22767;47.328;9.640;2022-11-20T10:26:16;2.85;;;1.45;;
36829;SDS011;22767;47.328;9.640;2022-11-20T10:28:53;2.38;;;1.80;;
36829;SDS011;22767;47.328;9.640;2022-11-20T10:33:59;2.80;;;2.00;;
36829;SDS011;22767;47.328;9.640;2022-11-20T10:36:28;4.43;;;1.85;;
36829;SDS011;22767;47.328;9.640;2022-11-20T10:39:01;3.58;;;1.98;;
36829;SDS011;22767;47.328;9.640;2022-11-20T10:41:34;2.40;;;1.75;;
36829;SDS011;22767;47.328;9.640;2022-11-20T10:46:32;2.47;;;1.70;;
36829;SDS011;22767;47.328;9.640;2022-11-20T10:49:02;3.25;;;1.73;;
36829;SDS011;22767;47.328;9.640;2022-11-20T10:51:43;2.47;;;1.88;;
36829;SDS011;22767;47.328;9.640;2022-11-20T10:56:40;3.55;;;2.40;;
36829;SDS011;22767;47.328;9.640;2022-11-20T11:01:40;2.47;;;1.38;;
36829;SDS011;22767;47.328;9.640;2022-11-20T11:04:15;2.00;;;1.75;;
36829;SDS011;22767;47.328;9.640;2022-11-20T11:06:47;6.60;;;1.50;;
36829;SDS011;22767;47.328;9.640;2022-11-20T11:09:19;2.78;;;1.70;;
36829;SDS011;22767;47.328;9.640;2022-11-20T11:11:47;1.98;;;1.50;;
36829;SDS011;22767;47.328;9.640;2022-11-20T11:14:14;2.50;;;1.67;;
36829;SDS011;22767;47.328;9.640;2022-11-20T11:19:16;2.35;;;1.30;;
36829;SDS011;22767;47.328;9.640;2022-11-20T11:21:46;1.55;;;1.05;;
36829;SDS011;22767;47.328;9.640;2022-11-20T11:24:20;1.40;;;1.17;;
36829;SDS011;22767;47.328;9.640;2022-11-20T11:26:51;1.70;;;1.20;;
36829;SDS011;22767;47.328;9.640;2022-11-20T11:29:18;1.33;;;1.00;;
36829;SDS011;22767;47.328;9.640;2022-11-20T11:31:44;2.10;;;1.20;;
36829;SDS011;22767;47.328;9.640;2022-11-20T11:34:14;1.08;;;0.98;;
36829;SDS011;22767;47.328;9.640;2022-11-20T11:36:40;1.30;;;1.10;;
36829;SDS011;22767;47.328;9.640;2022-11-20T11:39:17;2.17;;;1.20;;
36829;SDS011;22767;47.328;9.640;2022-11-20T11:41:44;1.60;;;1.10;;
36829;SDS011;22767;47.328;9.640;2022-11-20T11:44:20;0.90;;;0.82;;
36829;SDS011;22767;47.328;9.640;2022-11-20T11:47:10;2.03;;;0.80;;
36829;SDS011;22767;47.328;9.640;2022-11-20T11:49:37;1.13;;;1.00;;
36829;SDS011;22767;47.328;9.640;2022-11-20T11:52:16;1.02;;;0.95;;
36829;SDS011;22767;47.328;9.640;2022-11-20T11:57:36;1.63;;;0.75;;
36829;SDS011;22767;47.328;9.640;2022-11-20T12:00:01;1.08;;;0.82;;
36829;SDS011;22767;47.328;9.640;2022-11-20T12:04:59;1.58;;;1.00;;
36829;SDS011;22767;47.328;9.640;2022-11-20T12:13:02;1.63;;;0.60;;
36829;SDS011;22767;47.328;9.640;2022-11-20T12:15:30;1.90;;;0.88;;
36829;SDS011;22767;47.328;9.640;2022-11-20T12:17:57;0.70;;;0.50;;
36829;SDS011;22767;47.328;9.640;2022-11-20T12:20:25;1.05;;;0.80;;
36829;SDS011;22767;47.328;9.640;2022-11-20T12:30:26;2.03;;;0.70;;
36829;SDS011;22767;47.328;9.640;2022-11-20T12:46:46;0.80;;;0.80;;
36829;SDS011;22767;47.328;9.640;2022-11-20T12:49:18;1.48;;;0.90;;
36829;SDS011;22767;47.328;9.640;2022-11-20T12:59:33;1.05;;;0.80;;
36829;SDS011;22767;47.328;9.640;2022-11-20T13:07:32;0.77;;;0.60;;
36829;SDS011;22767;47.328;9.640;2022-11-20T13:09:59;0.93;;;0.57;;
36829;SDS011;22767;47.328;9.640;2022-11-20T13:17:40;0.93;;;0.70;;
36829;SDS011;22767;47.328;9.640;2022-11-20T13:20:15;1.50;;;0.77;;
36829;SDS011;22767;47.328;9.640;2022-11-20T13:22:46;1.08;;;0.90;;
36829;SDS011;22767;47.328;9.640;2022-11-20T13:25:32;2.50;;;1.40;;
36829;SDS011;22767;47.328;9.640;2022-11-20T13:28:00;2.15;;;1.30;;
36829;SDS011;22767;47.328;9.640;2022-11-20T13:30:27;3.08;;;1.45;;
36829;SDS011;22767;47.328;9.640;2022-11-20T13:32:55;1.75;;;1.50;;
36829;SDS011;22767;47.328;9.640;2022-11-20T13:35:24;3.75;;;2.30;;
36829;SDS011;22767;47.328;9.640;2022-11-20T13:40:27;3.13;;;1.92;;
36829;SDS011;22767;47.328;9.640;2022-11-20T13:45:24;3.92;;;1.88;;
36829;SDS011;22767;47.328;9.640;2022-11-20T13:47:53;4.05;;;1.85;;
36829;SDS011;22767;47.328;9.640;2022-11-20T13:50:40;2.40;;;1.73;;
36829;SDS011;22767;47.328;9.640;2022-11-20T13:53:18;3.00;;;1.50;;
36829;SDS011;22767;47.328;9.640;2022-11-20T13:58:27;2.50;;;1.52;;
36829;SDS011;22767;47.328;9.640;2022-11-20T14:01:00;1.98;;;1.55;;
36829;SDS011;22767;47.328;9.640;2022-11-20T14:03:28;3.55;;;1.73;;
36829;SDS011;22767;47.328;9.640;2022-11-20T14:05:56;1.98;;;1.42;;
36829;SDS011;22767;47.328;9.640;2022-11-20T14:08:39;4.43;;;1.65;;
36829;SDS011;22767;47.328;9.640;2022-11-20T14:11:14;2.42;;;1.30;;
36829;SDS011;22767;47.328;9.640;2022-11-20T14:13:51;2.85;;;1.30;;
36829;SDS011;22767;47.328;9.640;2022-11-20T14:16:21;2.17;;;1.17;;
36829;SDS011;22767;47.328;9.640;2022-11-20T14:18:47;3.70;;;1.20;;
36829;SDS011;22767;47.328;9.640;2022-11-20T14:21:27;1.65;;;1.38;;
36829;SDS011;22767;47.328;9.640;2022-11-20T14:24:04;1.27;;;0.90;;
36829;SDS011;22767;47.328;9.640;2022-11-20T14:26:30;1.58;;;0.90;;
36829;SDS011;22767;47.328;9.640;2022-11-20T14:28:57;1.75;;;0.82;;
36829;SDS011;22767;47.328;9.640;2022-11-20T14:31:25;3.42;;;1.17;;
36829;SDS011;22767;47.328;9.640;2022-11-20T14:33:52;2.15;;;1.23;;
36829;SDS011;22767;47.328;9.640;2022-11-20T14:36:23;3.25;;;1.70;;
36829;SDS011;22767;47.328;9.640;2022-11-20T14:38:50;2.58;;;1.40;;
36829;SDS011;22767;47.328;9.640;2022-11-20T14:41:18;5.43;;;1.40;;
36829;SDS011;22767;47.328;9.640;2022-11-20T14:43:46;5.05;;;2.00;;
36829;SDS011;22767;47.328;9.640;2022-11-20T14:46:12;1.88;;;1.35;;
36829;SDS011;22767;47.328;9.640;2022-11-20T14:51:08;2.67;;;1.27;;
36829;SDS011;22767;47.328;9.640;2022-11-20T14:53:35;2.10;;;1.30;;
36829;SDS011;22767;47.328;9.640;2022-11-20T14:56:02;1.92;;;1.17;;
36829;SDS011;22767;47.328;9.640;2022-11-20T14:58:32;2.17;;;0.90;;
36829;SDS011;22767;47.328;9.640;2022-11-20T15:01:00;2.25;;;1.13;;
36829;SDS011;22767;47.328;9.640;2022-11-20T15:03:37;0.73;;;0.73;;
36829;SDS011;22767;47.328;9.640;2022-11-20T15:06:04;1.40;;;0.73;;
36829;SDS011;22767;47.328;9.640;2022-11-20T15:08:31;1.20;;;1.00;;
36829;SDS011;22767;47.328;9.640;2022-11-20T15:10:57;1.40;;;0.95;;
36829;SDS011;22767;47.328;9.640;2022-11-20T15:13:25;4.93;;;1.00;;
36829;SDS011;22767;47.328;9.640;2022-11-20T15:15:53;1.10;;;1.00;;
36829;SDS011;22767;47.328;9.640;2022-11-20T15:18:23;1.27;;;0.80;;
36829;SDS011;22767;47.328;9.640;2022-11-20T15:20:54;1.50;;;1.13;;
36829;SDS011;22767;47.328;9.640;2022-11-20T15:23:21;2.58;;;1.40;;
36829;SDS011;22767;47.328;9.640;2022-11-20T15:25:48;2.17;;;1.20;;
36829;SDS011;22767;47.328;9.640;2022-11-20T15:28:19;2.00;;;1.27;;
36829;SDS011;22767;47.328;9.640;2022-11-20T15:30:47;2.83;;;1.50;;
36829;SDS011;22767;47.328;9.640;2022-11-20T15:33:14;2.40;;;1.10;;
36829;SDS011;22767;47.328;9.640;2022-11-20T15:35:40;1.52;;;1.08;;
36829;SDS011;22767;47.328;9.640;2022-11-20T15:38:07;2.00;;;1.33;;
36829;SDS011;22767;47.328;9.640;2022-11-20T15:40:33;3.60;;;2.50;;
36829;SDS011;22767;47.328;9.640;2022-11-20T15:43:00;4.32;;;1.67;;
36829;SDS011;22767;47.328;9.640;2022-11-20T15:48:02;2.45;;;1.30;;
36829;SDS011;22767;47.328;9.640;2022-11-20T15:50:32;5.50;;;1.70;;
36829;SDS011;22767;47.328;9.640;2022-11-20T15:52:59;2.15;;;1.33;;
36829;SDS011;22767;47.328;9.640;2022-11-20T15:55:26;3.08;;;1.40;;
36829;SDS011;22767;47.328;9.640;2022-11-20T15:57:52;1.33;;;0.90;;
36829;SDS011;22767;47.328;9.640;2022-11-20T16:00:18;1.90;;;1.38;;
36829;SDS011;22767;47.328;9.640;2022-11-20T16:02:45;2.28;;;1.70;;
36829;SDS011;22767;47.328;9.640;2022-11-20T16:05:11;3.50;;;1.90;;
36829;SDS011;22767;47.328;9.640;2022-11-20T16:07:38;3.45;;;1.90;;
36829;SDS011;22767;47.328;9.640;2022-11-20T16:10:04;2.45;;;1.70;;
36829;SDS011;22767;47.328;9.640;2022-11-20T16:12:31;2.05;;;1.30;;
36829;SDS011;22767;47.328;9.640;2022-11-20T16:15:16;2.40;;;1.20;;
36829;SDS011;22767;47.328;9.640;2022-11-20T16:18:00;2.20;;;1.35;;
36829;SDS011;22767;47.328;9.640;2022-11-20T16:20:27;2.42;;;1.45;;
36829;SDS011;22767;47.328;9.640;2022-11-20T16:22:54;1.40;;;1.15;;
36829;SDS011;22767;47.328;9.640;2022-11-20T16:25:20;2.15;;;1.50;;
36829;SDS011;22767;47.328;9.640;2022-11-20T16:27:47;3.90;;;1.80;;
36829;SDS011;22767;47.328;9.640;2022-11-20T16:30:13;3.65;;;2.00;;